Flight Track Log - Related Links

Times and Time Zones

All times are in EDT time to prevent confusion due to time zone crossing. See the SWA303 flight status page for this flight to view local times or setup timezone preferences in your user account.

Time Position Orientation Groundspeed Altitude Reporting Facility
EDT Latitude Longitude Course Direction KTS MPH feet Rate Location/Type
Tue 03:54:02 PM 39.9333 -104.6333 84° East 229 264 7,400  Level Denver TRACON
Tue 03:55:02 PM 39.9500 -104.5500 75° East 300 345 9,400 2,667 Climbing Denver TRACON
Tue 03:56:08 PM 39.9081 -104.4244 113° Southeast 313 360 13,000 2,766 Climbing Denver Center
Tue 03:57:10 PM 39.8814 -104.3069 106° East 339 390 15,300 2,000 Climbing Denver Center
Tue 03:58:23 PM 39.8819 -104.1603 90° East 383 441 17,500 2,356 Climbing Denver Center
Tue 03:59:00 PM 39.9387 -103.7153 84° East  Level Estimated
Tue 03:59:25 PM 39.8817 -103.9767 90° East 412 474 20,600  Level Denver Center
Tue 04:00:27 PM 39.8828 -103.8222 89° East 428 493 23,100 2,371 Climbing Denver Center
Tue 04:01:29 PM 39.8903 -103.6669 86° East 422 486 25,500 2,226 Climbing Denver Center
Tue 04:02:31 PM 39.9100 -103.4961 81° East 438 504 27,700 1,951 Climbing Denver Center
Tue 04:03:32 PM 39.9281 -103.3453 81° East 441 507 29,500 1,902 Climbing Denver Center
Tue 04:04:34 PM 39.9483 -103.1644 82° East 449 517 31,600 1,790 Climbing Denver Center
Tue 04:05:36 PM 39.9653 -103.0122 82° East 445 512 33,200 1,306 Climbing Denver Center
Tue 04:06:38 PM 39.9817 -102.8578 82° East 449 517 34,300 1,073 Climbing Denver Center
Tue 04:07:39 PM 40.0006 -102.6750 82° East 456 525 35,400 1,171 Climbing Denver Center
Tue 04:08:41 PM 40.0172 -102.5161 82° East 461 531 36,700 774 Climbing Denver Center
Tue 04:09:43 PM 40.0369 -102.3303 82° East 464 534 37,000 146 Climbing Denver Center
Tue 04:10:44 PM 40.0528 -102.1728 82° East 460 529 37,000  Level Denver Center
Tue 04:11:46 PM 40.0717 -101.9881 82° East 462 532 37,000  Level Denver Center
Tue 04:12:48 PM 40.0881 -101.8311 82° East 458 527 37,000  Level Denver Center
Tue 04:13:50 PM 40.1053 -101.6492 83° East 456 525 37,000  Level Denver Center
Tue 04:15:03 PM 40.1203 -101.4906 83° East 459 528 37,000  Level Denver Center
Tue 04:16:05 PM 40.1408 -101.2814 83° East 458 527 37,000  Level Denver Center
Tue 04:17:07 PM 40.1558 -101.1233 83° East 459 528 37,000  Level Denver Center
Tue 04:18:09 PM 40.1589 -100.9364 89° East 460 529 37,000  Level Denver Center
Tue 04:19:11 PM 40.1619 -100.7758 89° East 463 533 37,000  Level Denver Center
Tue 04:20:12 PM 40.1653 -100.5883 89° East 463 533 37,000  Level Denver Center
Tue 04:21:14 PM 40.1683 -100.4261 89° East 468 539 37,000  Level Denver Center
Tue 04:22:16 PM 40.1706 -100.2378 89° East 467 537 37,000  Level Denver Center
Tue 04:23:18 PM 40.1731 -100.0753 89° East 468 539 37,000  Level Denver Center
Tue 04:24:31 PM 40.1753 -99.8906 89° East 469 540 37,000  Level Denver Center
Tue 04:25:33 PM 40.1775 -99.6894 89° East 462 532 37,000  Level Denver Center
Tue 04:26:35 PM 40.1789 -99.5222 89° East 461 531 37,000  Level Denver Center
Tue 04:27:37 PM 40.1800 -99.3531 89° East 466 536 37,000  Level Denver Center
Tue 04:28:39 PM 40.1811 -99.1828 89° East 470 541 37,000  Level Denver Center
Tue 04:29:40 PM 40.1817 -99.0117 90° East 474 545 37,000  Level Denver Center
Tue 04:30:42 PM 40.1831 -98.8064 89° East 472 543 37,000  Level Denver Center
Tue 04:31:31 PM 40.1825 -98.6675 90° East 479 551 37,000 270 Level Minneapolis Center
Tue 04:32:33 PM 40.1828 -98.4950 90° East 478 550 37,500 774 Climbing Minneapolis Center
Tue 04:33:35 PM 40.1822 -98.3225 90° East 477 549 38,600 726 Climbing Minneapolis Center
Tue 04:34:37 PM 40.1817 -98.1506 90° East 475 547 39,000 194 Climbing Minneapolis Center
Tue 04:35:39 PM 40.1806 -97.9761 90° East 479 551 39,000  Level Minneapolis Center
Tue 04:36:41 PM 40.1800 -97.8033 90° East 479 551 39,000  Level Minneapolis Center
Tue 04:37:55 PM 40.1783 -97.5928 91° East 482 555 39,000  Level Minneapolis Center
Tue 04:38:58 PM 40.1758 -97.3825 91° East 483 556 39,000  Level Minneapolis Center
Tue 04:40:00 PM 40.1747 -97.2128 90° East 480 552 39,000  Level Minneapolis Center
Tue 04:41:02 PM 40.1714 -97.0392 91° East 479 551 39,000  Level Minneapolis Center
Tue 04:42:04 PM 40.1697 -96.8675 91° East 476 548 39,000  Level Minneapolis Center
Tue 04:43:06 PM 40.1664 -96.6603 91° East 475 547 39,000  Level Minneapolis Center
Tue 04:44:08 PM 40.1631 -96.4856 91° East 480 552 39,000  Level Minneapolis Center
Tue 04:45:10 PM 40.1597 -96.3114 91° East 482 555 39,000  Level Minneapolis Center
Tue 04:46:12 PM 40.1561 -96.1369 91° East 483 556 39,000  Level Minneapolis Center
Tue 04:47:14 PM 40.1519 -95.9606 92° East 486 559 39,000  Level Minneapolis Center
Tue 04:48:16 PM 40.1481 -95.7828 92° East 491 565 39,000  Level Minneapolis Center
Tue 04:49:18 PM 40.1439 -95.6061 92° East 489 563 39,000  Level Minneapolis Center
Tue 04:50:20 PM 40.1389 -95.3947 92° East 488 562 39,000  Level Minneapolis Center
Tue 04:51:22 PM 40.1339 -95.2203 92° East 485 558 39,000  Level Minneapolis Center
Tue 04:52:25 PM 40.1289 -95.0453 92° East 483 556 39,000  Level Minneapolis Center
Tue 04:53:09 PM 40.1239 -94.9106 93° East 486 559 39,000  Level Kansas City Center
Tue 04:54:11 PM 40.1178 -94.7158 92° East 482 555 39,000 -355 Level Kansas City Center
Tue 04:56:15 PM 40.1053 -94.3517 92° East 481 554 37,900 -645 Descending Kansas City Center
Tue 04:57:17 PM 40.0981 -94.1822 93° East 487 560 37,000 -919 Descending Kansas City Center
Tue 04:58:19 PM 40.0892 -93.9969 94° East 489 563 36,000 -919 Descending Kansas City Center
Tue 04:59:21 PM 40.0819 -93.8250 93° East 485 558 35,100 -484 Descending Kansas City Center
Tue 05:00:23 PM 40.0761 -93.6517 92° East 483 556 35,000 -48 Descending Kansas City Center
Tue 05:01:25 PM 40.0689 -93.4803 93° East 479 551 35,000  Level Kansas City Center
Tue 05:02:27 PM 40.0603 -93.2736 93° East 480 552 35,000  Level Kansas City Center
Tue 05:03:29 PM 40.0517 -93.1014 94° East 482 555 35,000  Level Kansas City Center
Tue 05:04:32 PM 40.0431 -92.9311 94° East 478 550 35,000  Level Kansas City Center
Tue 05:05:33 PM 40.0353 -92.7622 93° East 478 550 35,000  Level Kansas City Center
Tue 05:06:35 PM 40.0267 -92.5583 93° East 479 551 35,000  Level Kansas City Center
Tue 05:07:37 PM 40.0167 -92.3894 94° East 478 550 35,000  Level Kansas City Center
Tue 05:08:39 PM 40.0083 -92.2206 94° East 477 549 35,000 -48 Level Kansas City Center
Tue 05:09:41 PM 39.9975 -92.0497 95° East 478 550 34,900  Descending Kansas City Center
Tue 05:10:43 PM 39.9864 -91.8439 94° East 480 552 35,000 48 Climbing Kansas City Center
Tue 05:11:45 PM 39.9764 -91.6719 94° East 481 554 35,000  Level Kansas City Center
Tue 05:12:47 PM 39.9667 -91.4989 94° East 482 555 35,000  Level Kansas City Center
Tue 05:13:49 PM 39.9550 -91.3292 95° East 479 551 35,000  Level Kansas City Center
Tue 05:14:51 PM 39.9431 -91.1572 95° East 479 551 35,000  Level Kansas City Center
Tue 05:15:53 PM 39.9306 -90.9611 95° East 479 551 35,000  Level Kansas City Center
Tue 05:16:55 PM 39.9206 -90.7892 94° East 478 550 35,000  Level Kansas City Center
Tue 05:17:57 PM 39.9086 -90.6192 95° East 476 548 35,000  Level Kansas City Center
Tue 05:18:59 PM 39.8969 -90.4494 95° East 474 545 35,000  Level Kansas City Center
Tue 05:20:02 PM 39.8819 -90.2431 95° East 478 550 35,000  Level Kansas City Center
Tue 05:21:04 PM 39.8686 -90.0703 96° East 481 554 35,000  Level Kansas City Center
Tue 05:22:06 PM 39.8558 -89.8967 95° East 484 557 35,000  Level Kansas City Center
Tue 05:23:08 PM 39.8433 -89.7258 95° East 480 552 35,000  Level Kansas City Center
Tue 05:24:10 PM 39.8403 -89.5511 91° East 488 562 35,000  Level Kansas City Center
Tue 05:25:12 PM 39.8433 -89.3400 89° East 489 563 35,000  Level Kansas City Center
Tue 05:26:14 PM 39.8547 -89.1647 85° East 488 562 35,000  Level Kansas City Center
Tue 05:27:16 PM 39.8647 -88.9889 86° East 490 564 35,000  Level Kansas City Center
Tue 05:28:18 PM 39.8744 -88.8142 86° East 487 560 35,000  Level Kansas City Center
Tue 05:29:20 PM 39.8836 -88.6389 86° East 487 560 35,000  Level Kansas City Center
Tue 05:30:22 PM 39.8947 -88.4639 85° East 486 559 35,000  Level Kansas City Center
Tue 05:31:24 PM 39.9053 -88.2561 86° East 482 555 35,000  Level Kansas City Center
Tue 05:32:26 PM 39.9108 -88.0867 87° East 475 547 35,000  Level Kansas City Center
Tue 05:33:07 PM 39.9153 -87.9653 87° East 472 543 35,000  Level Indianapolis Center
Tue 05:34:09 PM 39.9231 -87.7958 87° East 472 543 35,000  Level Indianapolis Center
Tue 05:35:11 PM 39.9308 -87.6264 87° East 471 542 35,000  Level Indianapolis Center
Tue 05:36:13 PM 39.9369 -87.4547 87° East 473 544 35,000  Level Indianapolis Center
Tue 05:37:14 PM 39.9444 -87.2817 87° East 479 551 35,000  Level Indianapolis Center
Tue 05:38:16 PM 39.9511 -87.1086 87° East 478 550 35,000  Level Indianapolis Center
Tue 05:39:18 PM 39.9581 -86.9367 87° East 476 548 35,000  Level Indianapolis Center
Tue 05:40:20 PM 39.9653 -86.7317 87° East 473 544 35,000  Level Indianapolis Center
Tue 05:41:22 PM 39.9711 -86.5603 87° East 471 542 35,000  Level Indianapolis Center
Tue 05:42:24 PM 39.9764 -86.3886 88° East 469 540 35,000  Level Indianapolis Center
Tue 05:43:26 PM 39.9822 -86.2167 87° East 468 539 35,000  Level Indianapolis Center
Tue 05:44:28 PM 39.9872 -86.0458 88° East 468 539 35,000  Level Indianapolis Center
Tue 05:45:29 PM 39.9908 -85.8769 88° East 464 534 35,000  Level Indianapolis Center
Tue 05:46:31 PM 39.9950 -85.7089 88° East 463 533 35,000  Level Indianapolis Center
Tue 05:47:33 PM 39.9992 -85.5425 88° East 461 531 35,000  Level Indianapolis Center
Tue 05:48:35 PM 40.0033 -85.3761 88° East 460 529 35,000  Level Indianapolis Center
Tue 05:49:37 PM 40.0067 -85.1775 89° East 457 526 35,000  Level Indianapolis Center
Tue 05:50:39 PM 40.0103 -85.0119 88° East 457 526 35,000  Level Indianapolis Center
Tue 05:51:41 PM 40.0133 -84.8583 88° East 454 522 35,000  Level Indianapolis Center
Tue 05:52:42 PM 40.0153 -84.6925 89° East 452 520 35,000  Level Indianapolis Center
Tue 05:53:44 PM 40.0197 -84.4972 88° East 459 528 35,000  Level Indianapolis Center
Tue 05:54:46 PM 40.0231 -84.3303 88° East 456 525 35,000  Level Indianapolis Center
Tue 05:55:48 PM 40.0242 -84.1611 89° East 461 531 35,000  Level Indianapolis Center
Tue 05:56:50 PM 40.0264 -83.9933 89° East 459 528 35,000  Level Indianapolis Center
Tue 05:57:52 PM 40.0283 -83.8253 89° East 458 527 35,000  Level Indianapolis Center
Tue 05:58:53 PM 40.0297 -83.6556 89° East 458 527 35,000  Level Indianapolis Center
Tue 05:59:55 PM 40.0308 -83.4836 89° East 461 531 35,000  Level Indianapolis Center
Tue 06:00:57 PM 40.0314 -83.3111 90° East 465 535 35,000  Level Indianapolis Center
Tue 06:01:59 PM 40.0364 -83.1397 88° East 464 534 35,000  Level Indianapolis Center
Tue 06:03:01 PM 40.0553 -82.9719 82° East 463 533 35,000  Level Indianapolis Center
Tue 06:04:02 PM 40.0736 -82.8042 82° East 462 532 35,000  Level Indianapolis Center
Tue 06:05:04 PM 40.0906 -82.6356 82° East 464 534 35,000  Level Indianapolis Center
Tue 06:06:06 PM 40.1108 -82.4386 82° East 466 536 35,000  Level Indianapolis Center
Tue 06:07:08 PM 40.1078 -82.2694 91° East 461 531 35,000  Level Indianapolis Center
Tue 06:08:10 PM 40.0972 -82.1011 95° East 460 529 35,000  Level Indianapolis Center
Tue 06:09:11 PM 40.0892 -81.9322 94° East 463 533 35,000  Level Indianapolis Center
Tue 06:10:13 PM 40.0775 -81.7633 95° East 463 533 35,000  Level Indianapolis Center
Tue 06:11:15 PM 40.0333 -81.5889 108° East 460 529 35,000  Level Indianapolis Center
Tue 06:12:17 PM 39.9936 -81.4300 108° East 459 528 35,000  Level Indianapolis Center
Tue 06:13:19 PM 39.9531 -81.2697 108° East 458 527 35,000  Level Indianapolis Center
Tue 06:14:21 PM 39.9136 -81.1114 108° East 457 526 35,000  Level Indianapolis Center
Tue 06:15:22 PM 39.8725 -80.9525 109° East 459 528 35,000  Level Indianapolis Center
Tue 06:16:24 PM 39.8331 -80.7956 108° East 456 525 35,000  Level Indianapolis Center
Tue 06:17:26 PM 39.7928 -80.6386 108° East 455 524 35,000  Level Indianapolis Center
Tue 06:18:28 PM 39.7508 -80.4825 109° East 454 522 35,000  Level Indianapolis Center
Tue 06:19:30 PM 39.7014 -80.2939 109° East 457 526 35,000  Level Indianapolis Center
Tue 06:19:48 PM 39.6956 -80.2675 106° East 452 520 35,000 -240 Level Cleveland Center
Tue 06:21:35 PM 39.6250 -79.9939 108° East 459 528 34,500 -1,179 Descending Washington Center
Tue 06:22:36 PM 39.5844 -79.8433 109° East 454 522 31,700 -2,622 Descending Washington Center
Tue 06:23:34 PM 39.5419 -79.6903 110° East 454 522 29,300 -2,319 Descending Washington Center
Tue 06:24:35 PM 39.5050 -79.5428 108° East 449 517 27,100 -1,131 Descending Washington Center
Tue 06:25:36 PM 39.4767 -79.3906 104° East 443 510 27,000 -992 Descending Washington Center
Tue 06:26:36 PM 39.4425 -79.2194 104° East 438 504 25,100 -2,034 Descending Washington Center
Tue 06:27:34 PM 39.4153 -79.0758 104° East 438 504 23,000 -2,168 Descending Washington Center
Tue 06:28:35 PM 39.3903 -78.9322 103° East 418 481 20,800 -2,115 Descending Washington Center
Tue 06:29:36 PM 39.3647 -78.7942 103° East 407 468 18,700 -2,067 Descending Washington Center
Tue 06:30:34 PM 39.3433 -78.6617 102° East 390 449 16,700 -2,017 Descending Washington Center
Tue 06:31:35 PM 39.3175 -78.5292 104° East 383 441 14,700 -1,918 Descending Washington Center
Tue 06:32:36 PM 39.2953 -78.4022 103° East 371 427 12,800 -1,934 Descending Washington Center
Tue 06:33:36 PM 39.2519 -78.2933 117° Southeast 358 412 10,800 -1,475 Descending Washington Center
Tue 06:34:34 PM 39.2483 -78.1778 92° East 333 383 9,900 -1,109 Descending Washington Center
Tue 06:35:35 PM 39.2444 -78.0681 93° East 317 365 8,600 -1,450 Descending Washington Center
Tue 06:36:34 PM 39.2425 -77.9606 91° East 304 350 7,000 -1,462 Descending Washington Center
Tue 06:37:34 PM 39.2319 -77.8558 97° East 299 344 5,700 -887 Descending Washington Center
Tue 06:39:57 PM 39.2167 -77.6167 95° East 271 312 4,000 -500 Descending Potomac TRACON
Tue 06:40:58 PM 39.2000 -77.5167 102° East 263 303 4,000 -198 Level Potomac TRACON
Tue 06:41:58 PM 39.1667 -77.4667 131° Southeast 200 230 3,600 -576 Descending Potomac TRACON
Tue 06:43:03 PM 39.1167 -77.4333 153° Southeast 181 208 2,800 -600 Descending Potomac TRACON
Tue 06:43:58 PM 39.0667 -77.4333 180° South 182 209 2,400 -645 Descending Potomac TRACON
Tue 06:45:04 PM 39.0167 -77.4333 180° South 154 177 1,500 -762 Descending Potomac TRACON
Tue 06:46:04 PM 38.9833 -77.4333 180° South 137 158 800 -700 Descending Potomac TRACON
Tue 06:48:00 PM 38.9474 -77.4599 165° South  Level Estimated
Tue 06:55:00 PM 38.9474 -77.4599 165° South  Level Estimated
Tue 06:56:00 PM 38.9474 -77.4599 165° South  Level Estimated

Login

Don't have an account? Register now (free) for customized features, flight alerts, and more!